sensor_id;sensor_type;location;lat;lon;timestamp;P1;P2;P0
42410;PMS5003;28056;51.112;0.984;2022-12-01T00:00:32;34;27;
42410;PMS5003;28056;51.112;0.984;2022-12-01T00:03:00;26;25;
42410;PMS5003;28056;51.112;0.984;2022-12-01T00:05:27;37;32;
42410;PMS5003;28056;51.112;0.984;2022-12-01T00:07:54;33;29;
42410;PMS5003;28056;51.112;0.984;2022-12-01T00:10:22;31;27;
42410;PMS5003;28056;51.112;0.984;2022-12-01T00:12:49;32;31;
42410;PMS5003;28056;51.112;0.984;2022-12-01T00:15:17;33;26;
42410;PMS5003;28056;51.112;0.984;2022-12-01T00:17:45;30;25;
42410;PMS5003;28056;51.112;0.984;2022-12-01T00:20:13;33;31;
42410;PMS5003;28056;51.112;0.984;2022-12-01T00:22:42;34;29;
42410;PMS5003;28056;51.112;0.984;2022-12-01T00:25:09;38;30;
42410;PMS5003;28056;51.112;0.984;2022-12-01T00:27:38;42;34;
42410;PMS5003;28056;51.112;0.984;2022-12-01T00:30:09;34;31;
42410;PMS5003;28056;51.112;0.984;2022-12-01T00:32:37;27;26;
42410;PMS5003;28056;51.112;0.984;2022-12-01T00:35:04;31;27;
42410;PMS5003;28056;51.112;0.984;2022-12-01T00:37:33;29;27;
42410;PMS5003;28056;51.112;0.984;2022-12-01T00:40:03;32;27;
42410;PMS5003;28056;51.112;0.984;2022-12-01T00:42:31;27;24;
42410;PMS5003;28056;51.112;0.984;2022-12-01T00:44:58;30;25;
42410;PMS5003;28056;51.112;0.984;2022-12-01T00:47:26;32;30;
42410;PMS5003;28056;51.112;0.984;2022-12-01T00:49:53;31;29;
42410;PMS5003;28056;51.112;0.984;2022-12-01T00:52:20;33;26;
42410;PMS5003;28056;51.112;0.984;2022-12-01T00:54:48;33;29;
42410;PMS5003;28056;51.112;0.984;2022-12-01T00:57:15;35;31;
42410;PMS5003;28056;51.112;0.984;2022-12-01T00:59:43;40;33;
42410;PMS5003;28056;51.112;0.984;2022-12-01T01:04:52;29;25;
42410;PMS5003;28056;51.112;0.984;2022-12-01T01:07:19;25;24;
42410;PMS5003;28056;51.112;0.984;2022-12-01T01:09:47;30;26;
42410;PMS5003;28056;51.112;0.984;2022-12-01T01:12:14;33;31;
42410;PMS5003;28056;51.112;0.984;2022-12-01T01:14:41;28;28;
42410;PMS5003;28056;51.112;0.984;2022-12-01T01:17:09;30;26;
42410;PMS5003;28056;51.112;0.984;2022-12-01T01:19:36;28;24;
42410;PMS5003;28056;51.112;0.984;2022-12-01T01:22:04;30;25;
42410;PMS5003;28056;51.112;0.984;2022-12-01T01:24:31;21;21;
42410;PMS5003;28056;51.112;0.984;2022-12-01T01:26:58;18;17;
42410;PMS5003;28056;51.112;0.984;2022-12-01T01:29:25;25;22;
42410;PMS5003;28056;51.112;0.984;2022-12-01T01:31:52;21;21;
42410;PMS5003;28056;51.112;0.984;2022-12-01T01:34:20;22;19;
42410;PMS5003;28056;51.112;0.984;2022-12-01T01:36:47;21;19;
42410;PMS5003;28056;51.112;0.984;2022-12-01T01:39:15;22;21;
42410;PMS5003;28056;51.112;0.984;2022-12-01T01:41:42;33;26;
42410;PMS5003;28056;51.112;0.984;2022-12-01T01:44:48;27;24;
42410;PMS5003;28056;51.112;0.984;2022-12-01T01:47:18;26;25;
42410;PMS5003;28056;51.112;0.984;2022-12-01T01:49:49;26;26;
42410;PMS5003;28056;51.112;0.984;2022-12-01T01:52:17;26;24;
42410;PMS5003;28056;51.112;0.984;2022-12-01T01:54:47;26;21;
42410;PMS5003;28056;51.112;0.984;2022-12-01T01:57:19;31;28;
42410;PMS5003;28056;51.112;0.984;2022-12-01T01:59:53;24;17;
42410;PMS5003;28056;51.112;0.984;2022-12-01T02:02:24;26;22;
42410;PMS5003;28056;51.112;0.984;2022-12-01T02:04:53;20;17;
42410;PMS5003;28056;51.112;0.984;2022-12-01T02:07:25;21;19;
42410;PMS5003;28056;51.112;0.984;2022-12-01T02:09:52;20;20;
42410;PMS5003;28056;51.112;0.984;2022-12-01T02:12:26;21;20;
42410;PMS5003;28056;51.112;0.984;2022-12-01T02:15:04;15;15;
42410;PMS5003;28056;51.112;0.984;2022-12-01T02:17:43;19;16;
42410;PMS5003;28056;51.112;0.984;2022-12-01T02:21:24;17;17;
42410;PMS5003;28056;51.112;0.984;2022-12-01T02:24:35;13;11;
42410;PMS5003;28056;51.112;0.984;2022-12-01T02:27:18;15;13;
42410;PMS5003;28056;51.112;0.984;2022-12-01T02:30:04;17;11;
42410;PMS5003;28056;51.112;0.984;2022-12-01T02:32:44;10;10;
42410;PMS5003;28056;51.112;0.984;2022-12-01T02:35:20;15;11;
42410;PMS5003;28056;51.112;0.984;2022-12-01T02:37:58;15;13;
42410;PMS5003;28056;51.112;0.984;2022-12-01T02:40:35;13;11;
42410;PMS5003;28056;51.112;0.984;2022-12-01T02:43:09;10;8;
42410;PMS5003;28056;51.112;0.984;2022-12-01T02:45:42;13;11;
42410;PMS5003;28056;51.112;0.984;2022-12-01T02:48:16;11;11;
42410;PMS5003;28056;51.112;0.984;2022-12-01T02:50:49;10;10;
42410;PMS5003;28056;51.112;0.984;2022-12-01T02:53:20;12;12;
42410;PMS5003;28056;51.112;0.984;2022-12-01T02:55:49;11;10;
42410;PMS5003;28056;51.112;0.984;2022-12-01T02:58:18;10;10;
42410;PMS5003;28056;51.112;0.984;2022-12-01T03:00:50;12;10;
42410;PMS5003;28056;51.112;0.984;2022-12-01T03:03:32;5;5;
42410;PMS5003;28056;51.112;0.984;2022-12-01T03:06:49;12;8;
42410;PMS5003;28056;51.112;0.984;2022-12-01T03:09:25;9;6;
42410;PMS5003;28056;51.112;0.984;2022-12-01T03:12:03;7;7;
42410;PMS5003;28056;51.112;0.984;2022-12-01T03:14:39;11;8;
42410;PMS5003;28056;51.112;0.984;2022-12-01T03:17:13;8;8;
42410;PMS5003;28056;51.112;0.984;2022-12-01T03:19:47;10;6;
42410;PMS5003;28056;51.112;0.984;2022-12-01T03:22:20;4;4;
42410;PMS5003;28056;51.112;0.984;2022-12-01T03:24:52;6;6;
42410;PMS5003;28056;51.112;0.984;2022-12-01T03:27:23;6;6;
42410;PMS5003;28056;51.112;0.984;2022-12-01T03:29:55;8;3;
42410;PMS5003;28056;51.112;0.984;2022-12-01T03:32:27;5;3;
42410;PMS5003;28056;51.112;0.984;2022-12-01T03:34:57;3;3;
42410;PMS5003;28056;51.112;0.984;2022-12-01T03:37:30;6;3;
42410;PMS5003;28056;51.112;0.984;2022-12-01T03:40:00;2;2;
42410;PMS5003;28056;51.112;0.984;2022-12-01T03:42:32;3;3;
42410;PMS5003;28056;51.112;0.984;2022-12-01T03:45:04;5;3;
42410;PMS5003;28056;51.112;0.984;2022-12-01T03:47:37;3;3;
42410;PMS5003;28056;51.112;0.984;2022-12-01T03:50:05;2;2;
42410;PMS5003;28056;51.112;0.984;2022-12-01T03:52:37;3;3;
42410;PMS5003;28056;51.112;0.984;2022-12-01T03:55:10;5;3;
42410;PMS5003;28056;51.112;0.984;2022-12-01T03:57:44;3;3;
42410;PMS5003;28056;51.112;0.984;2022-12-01T04:00:15;3;3;
42410;PMS5003;28056;51.112;0.984;2022-12-01T04:02:44;2;2;
42410;PMS5003;28056;51.112;0.984;2022-12-01T04:05:11;3;3;
42410;PMS5003;28056;51.112;0.984;2022-12-01T04:07:39;3;3;
42410;PMS5003;28056;51.112;0.984;2022-12-01T04:10:07;2;2;
42410;PMS5003;28056;51.112;0.984;2022-12-01T04:12:35;2;2;
42410;PMS5003;28056;51.112;0.984;2022-12-01T04:15:03;3;3;
42410;PMS5003;28056;51.112;0.984;2022-12-01T04:17:33;3;2;
42410;PMS5003;28056;51.112;0.984;2022-12-01T04:20:01;2;2;
42410;PMS5003;28056;51.112;0.984;2022-12-01T04:22:30;2;1;
42410;PMS5003;28056;51.112;0.984;2022-12-01T04:24:58;3;3;
42410;PMS5003;28056;51.112;0.984;2022-12-01T04:27:25;5;5;
42410;PMS5003;28056;51.112;0.984;2022-12-01T04:29:52;2;2;
42410;PMS5003;28056;51.112;0.984;2022-12-01T04:32:20;1;1;
42410;PMS5003;28056;51.112;0.984;2022-12-01T04:34:47;2;2;
42410;PMS5003;28056;51.112;0.984;2022-12-01T04:37:14;2;2;
42410;PMS5003;28056;51.112;0.984;2022-12-01T04:39:42;2;2;
42410;PMS5003;28056;51.112;0.984;2022-12-01T04:42:10;2;2;
42410;PMS5003;28056;51.112;0.984;2022-12-01T04:44:38;3;3;
42410;PMS5003;28056;51.112;0.984;2022-12-01T04:47:05;2;2;
42410;PMS5003;28056;51.112;0.984;2022-12-01T04:49:33;3;3;
42410;PMS5003;28056;51.112;0.984;2022-12-01T04:52:01;5;2;
42410;PMS5003;28056;51.112;0.984;2022-12-01T04:54:28;3;3;
42410;PMS5003;28056;51.112;0.984;2022-12-01T04:56:55;2;2;
42410;PMS5003;28056;51.112;0.984;2022-12-01T04:59:22;2;2;
42410;PMS5003;28056;51.112;0.984;2022-12-01T05:01:50;3;2;
42410;PMS5003;28056;51.112;0.984;2022-12-01T05:04:17;7;6;
42410;PMS5003;28056;51.112;0.984;2022-12-01T05:06:44;3;3;
42410;PMS5003;28056;51.112;0.984;2022-12-01T05:09:12;2;2;
42410;PMS5003;28056;51.112;0.984;2022-12-01T05:11:41;6;3;
42410;PMS5003;28056;51.112;0.984;2022-12-01T05:14:09;3;2;
42410;PMS5003;28056;51.112;0.984;2022-12-01T05:16:36;2;2;
42410;PMS5003;28056;51.112;0.984;2022-12-01T05:19:03;1;1;
42410;PMS5003;28056;51.112;0.984;2022-12-01T05:21:31;1;1;
42410;PMS5003;28056;51.112;0.984;2022-12-01T05:23:58;3;3;
42410;PMS5003;28056;51.112;0.984;2022-12-01T05:26:26;2;2;
42410;PMS5003;28056;51.112;0.984;2022-12-01T05:28:53;5;2;
42410;PMS5003;28056;51.112;0.984;2022-12-01T05:31:20;2;2;
42410;PMS5003;28056;51.112;0.984;2022-12-01T05:33:47;2;2;
42410;PMS5003;28056;51.112;0.984;2022-12-01T05:36:14;5;2;
42410;PMS5003;28056;51.112;0.984;2022-12-01T05:38:41;3;3;
42410;PMS5003;28056;51.112;0.984;2022-12-01T05:41:08;2;2;
42410;PMS5003;28056;51.112;0.984;2022-12-01T05:43:36;6;5;
42410;PMS5003;28056;51.112;0.984;2022-12-01T05:46:03;3;3;
42410;PMS5003;28056;51.112;0.984;2022-12-01T05:48:31;3;3;
42410;PMS5003;28056;51.112;0.984;2022-12-01T05:50:58;6;3;
42410;PMS5003;28056;51.112;0.984;2022-12-01T05:53:25;6;6;
42410;PMS5003;28056;51.112;0.984;2022-12-01T05:55:52;6;3;
42410;PMS5003;28056;51.112;0.984;2022-12-01T05:58:20;3;3;
42410;PMS5003;28056;51.112;0.984;2022-12-01T06:00:48;3;2;
42410;PMS5003;28056;51.112;0.984;2022-12-01T06:03:15;2;2;
42410;PMS5003;28056;51.112;0.984;2022-12-01T06:05:42;3;1;
42410;PMS5003;28056;51.112;0.984;2022-12-01T06:08:09;5;2;
42410;PMS5003;28056;51.112;0.984;2022-12-01T06:10:36;2;2;
42410;PMS5003;28056;51.112;0.984;2022-12-01T06:13:03;3;3;
42410;PMS5003;28056;51.112;0.984;2022-12-01T06:15:30;3;2;
42410;PMS5003;28056;51.112;0.984;2022-12-01T06:17:57;2;2;
42410;PMS5003;28056;51.112;0.984;2022-12-01T06:20:25;5;2;
42410;PMS5003;28056;51.112;0.984;2022-12-01T06:22:52;3;2;
42410;PMS5003;28056;51.112;0.984;2022-12-01T06:25:20;5;5;
42410;PMS5003;28056;51.112;0.984;2022-12-01T06:27:47;5;5;
42410;PMS5003;28056;51.112;0.984;2022-12-01T06:30:15;3;3;
42410;PMS5003;28056;51.112;0.984;2022-12-01T06:32:43;5;2;
42410;PMS5003;28056;51.112;0.984;2022-12-01T06:35:10;5;5;
42410;PMS5003;28056;51.112;0.984;2022-12-01T06:37:37;6;5;
42410;PMS5003;28056;51.112;0.984;2022-12-01T06:40:05;6;5;
42410;PMS5003;28056;51.112;0.984;2022-12-01T06:42:33;5;5;
42410;PMS5003;28056;51.112;0.984;2022-12-01T06:45:00;7;6;
42410;PMS5003;28056;51.112;0.984;2022-12-01T06:47:27;7;5;
42410;PMS5003;28056;51.112;0.984;2022-12-01T06:49:54;7;7;
42410;PMS5003;28056;51.112;0.984;2022-12-01T06:52:22;6;6;
42410;PMS5003;28056;51.112;0.984;2022-12-01T06:54:49;3;2;
42410;PMS5003;28056;51.112;0.984;2022-12-01T06:57:16;5;5;
42410;PMS5003;28056;51.112;0.984;2022-12-01T06:59:43;10;6;
42410;PMS5003;28056;51.112;0.984;2022-12-01T07:02:11;6;6;
42410;PMS5003;28056;51.112;0.984;2022-12-01T07:04:38;6;6;
42410;PMS5003;28056;51.112;0.984;2022-12-01T07:07:05;5;5;
42410;PMS5003;28056;51.112;0.984;2022-12-01T07:09:33;9;9;
42410;PMS5003;28056;51.112;0.984;2022-12-01T07:12:01;7;3;
42410;PMS5003;28056;51.112;0.984;2022-12-01T07:14:28;5;5;
42410;PMS5003;28056;51.112;0.984;2022-12-01T07:16:55;7;6;
42410;PMS5003;28056;51.112;0.984;2022-12-01T07:19:23;6;5;
42410;PMS5003;28056;51.112;0.984;2022-12-01T07:21:51;5;5;
42410;PMS5003;28056;51.112;0.984;2022-12-01T07:24:18;5;5;
42410;PMS5003;28056;51.112;0.984;2022-12-01T07:26:45;7;6;
42410;PMS5003;28056;51.112;0.984;2022-12-01T07:29:12;6;3;
42410;PMS5003;28056;51.112;0.984;2022-12-01T07:31:40;5;5;
42410;PMS5003;28056;51.112;0.984;2022-12-01T07:34:09;5;5;
42410;PMS5003;28056;51.112;0.984;2022-12-01T07:36:37;2;2;
42410;PMS5003;28056;51.112;0.984;2022-12-01T07:39:05;5;5;
42410;PMS5003;28056;51.112;0.984;2022-12-01T07:41:33;5;5;
42410;PMS5003;28056;51.112;0.984;2022-12-01T07:44:01;10;6;
42410;PMS5003;28056;51.112;0.984;2022-12-01T07:46:29;9;7;
42410;PMS5003;28056;51.112;0.984;2022-12-01T07:48:56;6;5;
42410;PMS5003;28056;51.112;0.984;2022-12-01T07:51:24;9;7;
42410;PMS5003;28056;51.112;0.984;2022-12-01T07:53:52;9;6;
42410;PMS5003;28056;51.112;0.984;2022-12-01T07:56:20;7;7;
42410;PMS5003;28056;51.112;0.984;2022-12-01T07:58:48;7;6;
42410;PMS5003;28056;51.112;0.984;2022-12-01T08:01:17;11;7;
42410;PMS5003;28056;51.112;0.984;2022-12-01T08:03:46;7;5;
42410;PMS5003;28056;51.112;0.984;2022-12-01T08:06:13;10;6;
42410;PMS5003;28056;51.112;0.984;2022-12-01T08:08:41;7;6;
42410;PMS5003;28056;51.112;0.984;2022-12-01T08:11:10;10;9;
42410;PMS5003;28056;51.112;0.984;2022-12-01T08:13:39;10;10;
42410;PMS5003;28056;51.112;0.984;2022-12-01T08:16:09;6;6;
42410;PMS5003;28056;51.112;0.984;2022-12-01T08:18:39;9;7;
42410;PMS5003;28056;51.112;0.984;2022-12-01T08:21:08;6;6;
42410;PMS5003;28056;51.112;0.984;2022-12-01T08:23:37;9;9;
42410;PMS5003;28056;51.112;0.984;2022-12-01T08:26:06;6;6;
42410;PMS5003;28056;51.112;0.984;2022-12-01T08:28:35;7;6;
42410;PMS5003;28056;51.112;0.984;2022-12-01T08:31:06;11;9;
42410;PMS5003;28056;51.112;0.984;2022-12-01T08:33:34;6;6;
42410;PMS5003;28056;51.112;0.984;2022-12-01T08:36:02;5;5;
42410;PMS5003;28056;51.112;0.984;2022-12-01T08:38:30;10;10;
42410;PMS5003;28056;51.112;0.984;2022-12-01T08:40:59;7;6;
42410;PMS5003;28056;51.112;0.984;2022-12-01T08:43:27;5;5;
42410;PMS5003;28056;51.112;0.984;2022-12-01T08:45:56;10;7;
42410;PMS5003;28056;51.112;0.984;2022-12-01T08:48:24;11;11;
42410;PMS5003;28056;51.112;0.984;2022-12-01T08:50:52;11;7;
42410;PMS5003;28056;51.112;0.984;2022-12-01T08:53:27;12;11;
42410;PMS5003;28056;51.112;0.984;2022-12-01T08:55:54;14;10;
42410;PMS5003;28056;51.112;0.984;2022-12-01T08:58:24;11;10;
42410;PMS5003;28056;51.112;0.984;2022-12-01T09:00:51;11;11;
42410;PMS5003;28056;51.112;0.984;2022-12-01T09:03:18;14;14;
42410;PMS5003;28056;51.112;0.984;2022-12-01T09:05:45;11;11;
42410;PMS5003;28056;51.112;0.984;2022-12-01T09:08:12;12;11;
42410;PMS5003;28056;51.112;0.984;2022-12-01T09:10:39;10;8;
42410;PMS5003;28056;51.112;0.984;2022-12-01T09:13:06;12;7;
42410;PMS5003;28056;51.112;0.984;2022-12-01T09:15:33;9;9;
42410;PMS5003;28056;51.112;0.984;2022-12-01T09:18:00;10;7;
42410;PMS5003;28056;51.112;0.984;2022-12-01T09:20:27;11;9;
42410;PMS5003;28056;51.112;0.984;2022-12-01T09:22:54;11;10;
42410;PMS5003;28056;51.112;0.984;2022-12-01T09:25:21;11;8;
42410;PMS5003;28056;51.112;0.984;2022-12-01T09:27:48;8;8;
42410;PMS5003;28056;51.112;0.984;2022-12-01T09:30:15;12;8;
42410;PMS5003;28056;51.112;0.984;2022-12-01T09:32:43;12;8;
42410;PMS5003;28056;51.112;0.984;2022-12-01T09:35:10;13;10;
42410;PMS5003;28056;51.112;0.984;2022-12-01T09:37:38;77;59;
42410;PMS5003;28056;51.112;0.984;2022-12-01T09:40:06;48;38;
42410;PMS5003;28056;51.112;0.984;2022-12-01T09:42:35;25;25;
42410;PMS5003;28056;51.112;0.984;2022-12-01T09:45:03;24;20;
42410;PMS5003;28056;51.112;0.984;2022-12-01T09:47:33;29;24;
42410;PMS5003;28056;51.112;0.984;2022-12-01T09:50:04;12;12;
42410;PMS5003;28056;51.112;0.984;2022-12-01T09:52:39;12;12;
42410;PMS5003;28056;51.112;0.984;2022-12-01T09:55:10;12;11;
42410;PMS5003;28056;51.112;0.984;2022-12-01T09:57:39;15;14;
42410;PMS5003;28056;51.112;0.984;2022-12-01T10:00:10;18;15;
42410;PMS5003;28056;51.112;0.984;2022-12-01T10:02:41;20;19;
42410;PMS5003;28056;51.112;0.984;2022-12-01T10:05:14;20;16;
42410;PMS5003;28056;51.112;0.984;2022-12-01T10:07:46;19;19;
42410;PMS5003;28056;51.112;0.984;2022-12-01T10:10:21;22;20;
42410;PMS5003;28056;51.112;0.984;2022-12-01T10:12:52;28;24;
42410;PMS5003;28056;51.112;0.984;2022-12-01T10:15:25;23;20;
42410;PMS5003;28056;51.112;0.984;2022-12-01T10:18:03;24;24;
42410;PMS5003;28056;51.112;0.984;2022-12-01T10:20:45;20;15;
42410;PMS5003;28056;51.112;0.984;2022-12-01T10:23:24;15;15;
42410;PMS5003;28056;51.112;0.984;2022-12-01T10:26:06;15;15;
42410;PMS5003;28056;51.112;0.984;2022-12-01T10:28:59;24;20;
42410;PMS5003;28056;51.112;0.984;2022-12-01T10:31:38;20;19;
42410;PMS5003;28056;51.112;0.984;2022-12-01T10:34:14;23;21;
42410;PMS5003;28056;51.112;0.984;2022-12-01T10:36:45;20;16;
42410;PMS5003;28056;51.112;0.984;2022-12-01T10:39:14;23;20;
42410;PMS5003;28056;51.112;0.984;2022-12-01T10:41:44;25;19;
42410;PMS5003;28056;51.112;0.984;2022-12-01T10:44:14;20;16;
42410;PMS5003;28056;51.112;0.984;2022-12-01T10:46:44;20;19;
42410;PMS5003;28056;51.112;0.984;2022-12-01T10:49:16;17;15;
42410;PMS5003;28056;51.112;0.984;2022-12-01T10:51:47;25;23;
42410;PMS5003;28056;51.112;0.984;2022-12-01T10:54:17;21;20;
42410;PMS5003;28056;51.112;0.984;2022-12-01T10:56:46;19;16;
42410;PMS5003;28056;51.112;0.984;2022-12-01T10:59:20;25;21;
42410;PMS5003;28056;51.112;0.984;2022-12-01T11:01:51;26;24;
42410;PMS5003;28056;51.112;0.984;2022-12-01T11:04:21;28;26;
42410;PMS5003;28056;51.112;0.984;2022-12-01T11:06:55;32;25;
42410;PMS5003;28056;51.112;0.984;2022-12-01T11:09:23;23;23;
42410;PMS5003;28056;51.112;0.984;2022-12-01T11:11:53;23;23;
42410;PMS5003;28056;51.112;0.984;2022-12-01T11:14:22;25;21;
42410;PMS5003;28056;51.112;0.984;2022-12-01T11:17:13;27;27;
42410;PMS5003;28056;51.112;0.984;2022-12-01T11:19:41;33;24;
42410;PMS5003;28056;51.112;0.984;2022-12-01T11:22:17;24;24;
42410;PMS5003;28056;51.112;0.984;2022-12-01T11:24:57;25;24;
42410;PMS5003;28056;51.112;0.984;2022-12-01T11:27:28;29;24;
42410;PMS5003;28056;51.112;0.984;2022-12-01T11:30:00;27;27;
42410;PMS5003;28056;51.112;0.984;2022-12-01T11:32:31;23;20;
42410;PMS5003;28056;51.112;0.984;2022-12-01T11:35:02;23;21;
42410;PMS5003;28056;51.112;0.984;2022-12-01T11:37:34;28;27;
42410;PMS5003;28056;51.112;0.984;2022-12-01T11:40:05;25;24;
42410;PMS5003;28056;51.112;0.984;2022-12-01T11:42:40;27;23;
42410;PMS5003;28056;51.112;0.984;2022-12-01T11:45:20;31;25;
42410;PMS5003;28056;51.112;0.984;2022-12-01T11:48:01;23;22;
42410;PMS5003;28056;51.112;0.984;2022-12-01T11:50:32;28;24;
42410;PMS5003;28056;51.112;0.984;2022-12-01T11:53:01;29;28;
42410;PMS5003;28056;51.112;0.984;2022-12-01T11:55:29;32;30;
42410;PMS5003;28056;51.112;0.984;2022-12-01T11:57:58;25;24;
42410;PMS5003;28056;51.112;0.984;2022-12-01T12:00:31;26;23;
42410;PMS5003;28056;51.112;0.984;2022-12-01T12:03:12;25;23;
42410;PMS5003;28056;51.112;0.984;2022-12-01T12:05:50;21;21;
42410;PMS5003;28056;51.112;0.984;2022-12-01T12:08:33;29;25;
42410;PMS5003;28056;51.112;0.984;2022-12-01T12:11:10;20;20;
42410;PMS5003;28056;51.112;0.984;2022-12-01T12:13:47;16;16;
42410;PMS5003;28056;51.112;0.984;2022-12-01T12:16:29;31;26;
42410;PMS5003;28056;51.112;0.984;2022-12-01T12:19:11;26;20;
42410;PMS5003;28056;51.112;0.984;2022-12-01T12:21:47;26;23;
42410;PMS5003;28056;51.112;0.984;2022-12-01T12:24:30;28;23;
42410;PMS5003;28056;51.112;0.984;2022-12-01T12:27:09;29;22;
42410;PMS5003;28056;51.112;0.984;2022-12-01T12:29:46;35;25;
42410;PMS5003;28056;51.112;0.984;2022-12-01T12:32:27;30;26;
42410;PMS5003;28056;51.112;0.984;2022-12-01T12:35:07;37;28;
42410;PMS5003;28056;51.112;0.984;2022-12-01T12:37:49;34;30;
42410;PMS5003;28056;51.112;0.984;2022-12-01T12:40:31;31;26;
42410;PMS5003;28056;51.112;0.984;2022-12-01T12:43:13;35;31;
42410;PMS5003;28056;51.112;0.984;2022-12-01T12:45:51;29;29;
42410;PMS5003;28056;51.112;0.984;2022-12-01T12:48:29;31;28;
42410;PMS5003;28056;51.112;0.984;2022-12-01T12:51:13;35;26;
42410;PMS5003;28056;51.112;0.984;2022-12-01T12:53:47;34;29;
42410;PMS5003;28056;51.112;0.984;2022-12-01T12:56:20;38;30;
42410;PMS5003;28056;51.112;0.984;2022-12-01T12:58:52;48;42;
42410;PMS5003;28056;51.112;0.984;2022-12-01T13:01:24;34;32;
42410;PMS5003;28056;51.112;0.984;2022-12-01T13:03:56;45;38;
42410;PMS5003;28056;51.112;0.984;2022-12-01T13:06:29;46;36;
42410;PMS5003;28056;51.112;0.984;2022-12-01T13:09:03;46;36;
42410;PMS5003;28056;51.112;0.984;2022-12-01T13:11:38;34;31;
42410;PMS5003;28056;51.112;0.984;2022-12-01T13:14:14;37;32;
42410;PMS5003;28056;51.112;0.984;2022-12-01T13:16:49;46;32;
42410;PMS5003;28056;51.112;0.984;2022-12-01T13:19:20;35;31;
42410;PMS5003;28056;51.112;0.984;2022-12-01T13:21:51;37;33;
42410;PMS5003;28056;51.112;0.984;2022-12-01T13:24:20;40;31;
42410;PMS5003;28056;51.112;0.984;2022-12-01T13:26:51;36;25;
42410;PMS5003;28056;51.112;0.984;2022-12-01T13:29:22;35;31;
42410;PMS5003;28056;51.112;0.984;2022-12-01T13:31:52;31;28;
42410;PMS5003;28056;51.112;0.984;2022-12-01T13:34:21;32;27;
42410;PMS5003;28056;51.112;0.984;2022-12-01T13:36:53;36;32;
42410;PMS5003;28056;51.112;0.984;2022-12-01T13:39:22;31;28;
42410;PMS5003;28056;51.112;0.984;2022-12-01T13:42:00;36;31;
42410;PMS5003;28056;51.112;0.984;2022-12-01T13:44:32;38;31;
42410;PMS5003;28056;51.112;0.984;2022-12-01T13:47:29;33;28;
42410;PMS5003;28056;51.112;0.984;2022-12-01T13:51:07;31;28;
42410;PMS5003;28056;51.112;0.984;2022-12-01T13:53:35;36;30;
42410;PMS5003;28056;51.112;0.984;2022-12-01T13:56:18;36;33;
42410;PMS5003;28056;51.112;0.984;2022-12-01T13:58:52;30;26;
42410;PMS5003;28056;51.112;0.984;2022-12-01T14:02:05;34;34;
42410;PMS5003;28056;51.112;0.984;2022-12-01T14:04:40;29;26;
42410;PMS5003;28056;51.112;0.984;2022-12-01T14:07:19;42;37;
42410;PMS5003;28056;51.112;0.984;2022-12-01T14:09:52;33;26;
42410;PMS5003;28056;51.112;0.984;2022-12-01T14:12:23;32;29;
42410;PMS5003;28056;51.112;0.984;2022-12-01T14:14:53;31;29;
42410;PMS5003;28056;51.112;0.984;2022-12-01T14:17:26;37;30;
42410;PMS5003;28056;51.112;0.984;2022-12-01T14:20:02;30;25;
42410;PMS5003;28056;51.112;0.984;2022-12-01T14:22:34;37;31;
42410;PMS5003;28056;51.112;0.984;2022-12-01T14:25:05;43;33;
42410;PMS5003;28056;51.112;0.984;2022-12-01T14:27:50;41;33;
42410;PMS5003;28056;51.112;0.984;2022-12-01T14:32:01;29;26;
42410;PMS5003;28056;51.112;0.984;2022-12-01T14:34:43;28;26;
42410;PMS5003;28056;51.112;0.984;2022-12-01T14:37:12;30;26;
42410;PMS5003;28056;51.112;0.984;2022-12-01T14:39:43;32;32;
42410;PMS5003;28056;51.112;0.984;2022-12-01T14:42:16;33;26;
42410;PMS5003;28056;51.112;0.984;2022-12-01T14:44:50;33;25;
42410;PMS5003;28056;51.112;0.984;2022-12-01T14:47:21;32;28;
42410;PMS5003;28056;51.112;0.984;2022-12-01T14:49:53;32;27;
42410;PMS5003;28056;51.112;0.984;2022-12-01T14:52:28;44;36;
42410;PMS5003;28056;51.112;0.984;2022-12-01T14:54:59;39;34;
42410;PMS5003;28056;51.112;0.984;2022-12-01T14:57:31;33;25;
42410;PMS5003;28056;51.112;0.984;2022-12-01T15:00:04;35;28;
42410;PMS5003;28056;51.112;0.984;2022-12-01T15:02:34;32;32;
42410;PMS5003;28056;51.112;0.984;2022-12-01T15:05:07;41;37;
42410;PMS5003;28056;51.112;0.984;2022-12-01T15:07:38;44;37;
42410;PMS5003;28056;51.112;0.984;2022-12-01T15:10:14;34;32;
42410;PMS5003;28056;51.112;0.984;2022-12-01T15:12:43;43;33;
42410;PMS5003;28056;51.112;0.984;2022-12-01T15:15:13;43;37;
42410;PMS5003;28056;51.112;0.984;2022-12-01T15:17:42;43;34;
42410;PMS5003;28056;51.112;0.984;2022-12-01T15:20:30;42;39;
42410;PMS5003;28056;51.112;0.984;2022-12-01T15:23:00;35;30;
42410;PMS5003;28056;51.112;0.984;2022-12-01T15:25:34;33;33;
42410;PMS5003;28056;51.112;0.984;2022-12-01T15:28:02;41;34;
42410;PMS5003;28056;51.112;0.984;2022-12-01T15:30:38;41;34;
42410;PMS5003;28056;51.112;0.984;2022-12-01T15:33:09;33;31;
42410;PMS5003;28056;51.112;0.984;2022-12-01T15:35:44;31;27;
42410;PMS5003;28056;51.112;0.984;2022-12-01T15:38:12;37;34;
42410;PMS5003;28056;51.112;0.984;2022-12-01T15:40:42;37;34;
42410;PMS5003;28056;51.112;0.984;2022-12-01T15:43:14;36;36;
42410;PMS5003;28056;51.112;0.984;2022-12-01T15:45:53;30;30;
42410;PMS5003;28056;51.112;0.984;2022-12-01T15:48:25;46;37;
42410;PMS5003;28056;51.112;0.984;2022-12-01T15:50:59;32;32;
42410;PMS5003;28056;51.112;0.984;2022-12-01T15:53:31;39;36;
42410;PMS5003;28056;51.112;0.984;2022-12-01T15:56:01;40;35;
42410;PMS5003;28056;51.112;0.984;2022-12-01T15:58:32;36;30;
42410;PMS5003;28056;51.112;0.984;2022-12-01T16:01:02;31;27;
42410;PMS5003;28056;51.112;0.984;2022-12-01T16:03:46;35;29;
42410;PMS5003;28056;51.112;0.984;2022-12-01T16:06:18;37;28;
42410;PMS5003;28056;51.112;0.984;2022-12-01T16:08:52;36;32;
42410;PMS5003;28056;51.112;0.984;2022-12-01T16:11:22;28;28;
42410;PMS5003;28056;51.112;0.984;2022-12-01T16:13:56;47;41;
42410;PMS5003;28056;51.112;0.984;2022-12-01T16:16:29;35;31;
42410;PMS5003;28056;51.112;0.984;2022-12-01T16:19:02;42;38;
42410;PMS5003;28056;51.112;0.984;2022-12-01T16:21:45;37;33;
42410;PMS5003;28056;51.112;0.984;2022-12-01T16:24:14;40;35;
42410;PMS5003;28056;51.112;0.984;2022-12-01T16:26:45;33;28;
42410;PMS5003;28056;51.112;0.984;2022-12-01T16:29:17;40;39;
42410;PMS5003;28056;51.112;0.984;2022-12-01T16:31:45;40;33;
42410;PMS5003;28056;51.112;0.984;2022-12-01T16:34:14;36;29;
42410;PMS5003;28056;51.112;0.984;2022-12-01T16:36:43;31;27;
42410;PMS5003;28056;51.112;0.984;2022-12-01T16:39:10;34;33;
42410;PMS5003;28056;51.112;0.984;2022-12-01T16:41:38;31;28;
42410;PMS5003;28056;51.112;0.984;2022-12-01T16:44:06;36;29;
42410;PMS5003;28056;51.112;0.984;2022-12-01T16:46:34;32;27;
42410;PMS5003;28056;51.112;0.984;2022-12-01T16:49:01;33;29;
42410;PMS5003;28056;51.112;0.984;2022-12-01T16:51:29;37;32;
42410;PMS5003;28056;51.112;0.984;2022-12-01T16:53:56;28;27;
42410;PMS5003;28056;51.112;0.984;2022-12-01T16:56:25;32;32;
42410;PMS5003;28056;51.112;0.984;2022-12-01T16:58:53;28;22;
42410;PMS5003;28056;51.112;0.984;2022-12-01T17:01:20;37;34;